sensor_id;sensor_type;location;lat;lon;timestamp;P1;durP1;ratioP1;P2;durP2;ratioP2
21814;SDS011;11069;48.988;8.450;2023-01-28T00:01:06;7.32;;;6.60;;
21814;SDS011;11069;48.988;8.450;2023-01-28T00:03:32;7.15;;;6.38;;
21814;SDS011;11069;48.988;8.450;2023-01-28T00:06:17;6.15;;;5.55;;
21814;SDS011;11069;48.988;8.450;2023-01-28T00:08:43;6.85;;;6.15;;
21814;SDS011;11069;48.988;8.450;2023-01-28T00:11:10;6.97;;;5.38;;
21814;SDS011;11069;48.988;8.450;2023-01-28T00:13:36;6.22;;;5.63;;
21814;SDS011;11069;48.988;8.450;2023-01-28T00:16:03;6.45;;;5.85;;
21814;SDS011;11069;48.988;8.450;2023-01-28T00:18:31;6.38;;;5.78;;
21814;SDS011;11069;48.988;8.450;2023-01-28T00:21:02;5.63;;;5.13;;
21814;SDS011;11069;48.988;8.450;2023-01-28T00:23:29;6.18;;;5.60;;
21814;SDS011;11069;48.988;8.450;2023-01-28T00:25:57;6.05;;;5.50;;
21814;SDS011;11069;48.988;8.450;2023-01-28T00:28:23;6.53;;;5.93;;
21814;SDS011;11069;48.988;8.450;2023-01-28T00:30:49;5.80;;;5.30;;
21814;SDS011;11069;48.988;8.450;2023-01-28T00:33:14;6.25;;;5.57;;
21814;SDS011;11069;48.988;8.450;2023-01-28T00:35:40;5.60;;;5.03;;
21814;SDS011;11069;48.988;8.450;2023-01-28T00:38:06;5.70;;;5.10;;
21814;SDS011;11069;48.988;8.450;2023-01-28T00:40:33;5.55;;;5.05;;
21814;SDS011;11069;48.988;8.450;2023-01-28T00:42:58;6.07;;;5.30;;
21814;SDS011;11069;48.988;8.450;2023-01-28T00:45:24;6.13;;;4.95;;
21814;SDS011;11069;48.988;8.450;2023-01-28T00:47:50;6.07;;;5.22;;
21814;SDS011;11069;48.988;8.450;2023-01-28T00:50:15;5.30;;;4.85;;
21814;SDS011;11069;48.988;8.450;2023-01-28T00:52:41;6.07;;;5.47;;
21814;SDS011;11069;48.988;8.450;2023-01-28T00:55:08;6.15;;;5.55;;
21814;SDS011;11069;48.988;8.450;2023-01-28T00:57:34;6.38;;;5.78;;
21814;SDS011;11069;48.988;8.450;2023-01-28T00:59:59;6.07;;;5.47;;
21814;SDS011;11069;48.988;8.450;2023-01-28T01:02:25;5.20;;;4.80;;
21814;SDS011;11069;48.988;8.450;2023-01-28T01:04:51;5.75;;;5.25;;
21814;SDS011;11069;48.988;8.450;2023-01-28T01:07:23;5.80;;;5.20;;
21814;SDS011;11069;48.988;8.450;2023-01-28T01:09:57;5.75;;;5.20;;
21814;SDS011;11069;48.988;8.450;2023-01-28T01:12:24;5.85;;;5.30;;
21814;SDS011;11069;48.988;8.450;2023-01-28T01:14:49;6.68;;;6.05;;
21814;SDS011;11069;48.988;8.450;2023-01-28T01:17:15;6.35;;;5.75;;
21814;SDS011;11069;48.988;8.450;2023-01-28T01:19:41;6.78;;;6.18;;
21814;SDS011;11069;48.988;8.450;2023-01-28T01:22:07;6.53;;;5.93;;
21814;SDS011;11069;48.988;8.450;2023-01-28T01:24:32;6.30;;;5.70;;
21814;SDS011;11069;48.988;8.450;2023-01-28T01:26:58;7.05;;;6.35;;
21814;SDS011;11069;48.988;8.450;2023-01-28T01:29:24;6.68;;;5.82;;
21814;SDS011;11069;48.988;8.450;2023-01-28T01:31:49;6.20;;;5.60;;
21814;SDS011;11069;48.988;8.450;2023-01-28T01:34:15;5.68;;;5.18;;
21814;SDS011;11069;48.988;8.450;2023-01-28T01:36:40;5.65;;;5.15;;
21814;SDS011;11069;48.988;8.450;2023-01-28T01:39:09;6.25;;;5.65;;
21814;SDS011;11069;48.988;8.450;2023-01-28T01:41:36;6.25;;;5.47;;
21814;SDS011;11069;48.988;8.450;2023-01-28T01:44:03;5.72;;;5.22;;
21814;SDS011;11069;48.988;8.450;2023-01-28T01:46:41;6.00;;;5.40;;
21814;SDS011;11069;48.988;8.450;2023-01-28T01:49:16;6.00;;;5.40;;
21814;SDS011;11069;48.988;8.450;2023-01-28T01:51:45;5.55;;;5.05;;
21814;SDS011;11069;48.988;8.450;2023-01-28T01:54:15;6.57;;;5.97;;
21814;SDS011;11069;48.988;8.450;2023-01-28T01:56:43;6.20;;;5.60;;
21814;SDS011;11069;48.988;8.450;2023-01-28T01:59:11;6.65;;;6.05;;
21814;SDS011;11069;48.988;8.450;2023-01-28T02:01:41;6.65;;;6.05;;
21814;SDS011;11069;48.988;8.450;2023-01-28T02:04:11;6.90;;;6.28;;
21814;SDS011;11069;48.988;8.450;2023-01-28T02:06:50;6.45;;;5.82;;
21814;SDS011;11069;48.988;8.450;2023-01-28T02:09:23;6.10;;;5.50;;
21814;SDS011;11069;48.988;8.450;2023-01-28T02:11:52;6.28;;;5.68;;
21814;SDS011;11069;48.988;8.450;2023-01-28T02:14:20;7.07;;;6.47;;
21814;SDS011;11069;48.988;8.450;2023-01-28T02:16:50;7.28;;;6.50;;
21814;SDS011;11069;48.988;8.450;2023-01-28T02:19:15;6.80;;;6.13;;
21814;SDS011;11069;48.988;8.450;2023-01-28T02:30:45;6.40;;;5.80;;
21814;SDS011;11069;48.988;8.450;2023-01-28T02:33:17;5.88;;;5.30;;
21814;SDS011;11069;48.988;8.450;2023-01-28T02:36:15;5.95;;;5.32;;
21814;SDS011;11069;48.988;8.450;2023-01-28T02:38:53;5.60;;;5.10;;
21814;SDS011;11069;48.988;8.450;2023-01-28T02:41:33;5.32;;;4.88;;
21814;SDS011;11069;48.988;8.450;2023-01-28T02:44:04;5.73;;;5.23;;
21814;SDS011;11069;48.988;8.450;2023-01-28T02:49:17;4.80;;;4.40;;
21814;SDS011;11069;48.988;8.450;2023-01-28T02:54:28;5.18;;;4.55;;
21814;SDS011;11069;48.988;8.450;2023-01-28T03:06:01;6.47;;;4.70;;
21814;SDS011;11069;48.988;8.450;2023-01-28T03:11:19;4.97;;;4.47;;
21814;SDS011;11069;48.988;8.450;2023-01-28T03:14:07;5.53;;;5.03;;
21814;SDS011;11069;48.988;8.450;2023-01-28T03:16:51;5.50;;;5.00;;
21814;SDS011;11069;48.988;8.450;2023-01-28T03:19:40;5.30;;;4.80;;
21814;SDS011;11069;48.988;8.450;2023-01-28T03:22:24;5.93;;;5.32;;
21814;SDS011;11069;48.988;8.450;2023-01-28T03:25:12;5.53;;;4.82;;
21814;SDS011;11069;48.988;8.450;2023-01-28T03:27:59;6.18;;;5.18;;
21814;SDS011;11069;48.988;8.450;2023-01-28T03:30:48;6.00;;;5.50;;
21814;SDS011;11069;48.988;8.450;2023-01-28T03:33:45;5.82;;;5.32;;
21814;SDS011;11069;48.988;8.450;2023-01-28T03:36:30;5.43;;;4.93;;
21814;SDS011;11069;48.988;8.450;2023-01-28T03:39:16;5.22;;;4.78;;
21814;SDS011;11069;48.988;8.450;2023-01-28T03:41:42;5.93;;;5.32;;
21814;SDS011;11069;48.988;8.450;2023-01-28T03:44:28;5.45;;;4.95;;
21814;SDS011;11069;48.988;8.450;2023-01-28T03:47:13;5.43;;;4.93;;
21814;SDS011;11069;48.988;8.450;2023-01-28T03:49:42;6.22;;;4.78;;
21814;SDS011;11069;48.988;8.450;2023-01-28T03:52:19;5.95;;;4.88;;
21814;SDS011;11069;48.988;8.450;2023-01-28T03:54:46;5.40;;;4.90;;
21814;SDS011;11069;48.988;8.450;2023-01-28T03:57:13;6.82;;;4.88;;
21814;SDS011;11069;48.988;8.450;2023-01-28T03:59:40;5.68;;;5.00;;
21814;SDS011;11069;48.988;8.450;2023-01-28T04:02:06;5.95;;;5.30;;
21814;SDS011;11069;48.988;8.450;2023-01-28T04:04:32;5.38;;;4.88;;
21814;SDS011;11069;48.988;8.450;2023-01-28T04:06:58;5.40;;;4.90;;
21814;SDS011;11069;48.988;8.450;2023-01-28T04:09:24;6.30;;;4.70;;
21814;SDS011;11069;48.988;8.450;2023-01-28T04:11:49;5.40;;;4.90;;
21814;SDS011;11069;48.988;8.450;2023-01-28T04:14:15;6.18;;;5.20;;
21814;SDS011;11069;48.988;8.450;2023-01-28T04:16:42;5.32;;;4.82;;
21814;SDS011;11069;48.988;8.450;2023-01-28T04:19:08;5.70;;;5.10;;
21814;SDS011;11069;48.988;8.450;2023-01-28T04:21:36;5.60;;;4.97;;
21814;SDS011;11069;48.988;8.450;2023-01-28T04:24:02;6.03;;;5.40;;
21814;SDS011;11069;48.988;8.450;2023-01-28T04:26:28;6.15;;;5.55;;
21814;SDS011;11069;48.988;8.450;2023-01-28T04:28:54;6.45;;;5.85;;
21814;SDS011;11069;48.988;8.450;2023-01-28T04:31:20;6.78;;;5.93;;
21814;SDS011;11069;48.988;8.450;2023-01-28T04:33:47;5.93;;;5.43;;
21814;SDS011;11069;48.988;8.450;2023-01-28T04:36:13;6.30;;;5.70;;
21814;SDS011;11069;48.988;8.450;2023-01-28T04:38:39;6.32;;;5.55;;
21814;SDS011;11069;48.988;8.450;2023-01-28T04:41:04;6.30;;;5.70;;
21814;SDS011;11069;48.988;8.450;2023-01-28T04:43:30;6.50;;;5.90;;
21814;SDS011;11069;48.988;8.450;2023-01-28T04:45:56;6.38;;;5.78;;
21814;SDS011;11069;48.988;8.450;2023-01-28T04:48:21;6.43;;;5.82;;
21814;SDS011;11069;48.988;8.450;2023-01-28T04:50:47;7.05;;;6.35;;
21814;SDS011;11069;48.988;8.450;2023-01-28T04:53:12;6.75;;;6.15;;
21814;SDS011;11069;48.988;8.450;2023-01-28T04:55:38;6.85;;;6.25;;
21814;SDS011;11069;48.988;8.450;2023-01-28T04:58:04;7.35;;;6.57;;
21814;SDS011;11069;48.988;8.450;2023-01-28T05:00:29;6.97;;;6.38;;
21814;SDS011;11069;48.988;8.450;2023-01-28T05:02:55;8.07;;;7.38;;
21814;SDS011;11069;48.988;8.450;2023-01-28T05:05:20;8.40;;;7.70;;
21814;SDS011;11069;48.988;8.450;2023-01-28T05:07:53;8.95;;;8.13;;
21814;SDS011;11069;48.988;8.450;2023-01-28T05:10:20;9.20;;;8.30;;
21814;SDS011;11069;48.988;8.450;2023-01-28T05:12:46;9.23;;;8.48;;
21814;SDS011;11069;48.988;8.450;2023-01-28T05:15:13;9.80;;;8.88;;
21814;SDS011;11069;48.988;8.450;2023-01-28T05:17:39;10.10;;;9.20;;
21814;SDS011;11069;48.988;8.450;2023-01-28T05:20:06;10.75;;;9.85;;
21814;SDS011;11069;48.988;8.450;2023-01-28T05:22:32;11.07;;;10.07;;
21814;SDS011;11069;48.988;8.450;2023-01-28T05:24:58;11.02;;;10.02;;
21814;SDS011;11069;48.988;8.450;2023-01-28T05:27:23;10.77;;;9.85;;
21814;SDS011;11069;48.988;8.450;2023-01-28T05:29:49;11.23;;;10.23;;
21814;SDS011;11069;48.988;8.450;2023-01-28T05:32:15;11.93;;;10.82;;
21814;SDS011;11069;48.988;8.450;2023-01-28T05:34:40;13.00;;;11.70;;
21814;SDS011;11069;48.988;8.450;2023-01-28T05:37:06;14.50;;;13.18;;
21814;SDS011;11069;48.988;8.450;2023-01-28T05:39:31;15.55;;;14.02;;
21814;SDS011;11069;48.988;8.450;2023-01-28T05:41:57;14.73;;;13.43;;
21814;SDS011;11069;48.988;8.450;2023-01-28T05:44:22;15.85;;;14.45;;
21814;SDS011;11069;48.988;8.450;2023-01-28T05:46:48;15.82;;;14.43;;
21814;SDS011;11069;48.988;8.450;2023-01-28T05:49:13;14.35;;;13.05;;
21814;SDS011;11069;48.988;8.450;2023-01-28T05:51:39;13.80;;;12.63;;
21814;SDS011;11069;48.988;8.450;2023-01-28T05:54:05;14.05;;;12.75;;
21814;SDS011;11069;48.988;8.450;2023-01-28T05:56:31;14.52;;;13.10;;
21814;SDS011;11069;48.988;8.450;2023-01-28T05:58:59;13.57;;;12.38;;
21814;SDS011;11069;48.988;8.450;2023-01-28T06:01:24;13.23;;;12.13;;
21814;SDS011;11069;48.988;8.450;2023-01-28T06:03:50;13.18;;;11.98;;
21814;SDS011;11069;48.988;8.450;2023-01-28T06:06:16;13.27;;;12.15;;
21814;SDS011;11069;48.988;8.450;2023-01-28T06:08:42;13.30;;;12.02;;
21814;SDS011;11069;48.988;8.450;2023-01-28T06:11:07;13.40;;;12.27;;
21814;SDS011;11069;48.988;8.450;2023-01-28T06:13:33;12.85;;;11.75;;
21814;SDS011;11069;48.988;8.450;2023-01-28T06:15:58;14.18;;;12.85;;
21814;SDS011;11069;48.988;8.450;2023-01-28T06:18:24;13.77;;;12.57;;
21814;SDS011;11069;48.988;8.450;2023-01-28T06:20:50;13.82;;;12.52;;
21814;SDS011;11069;48.988;8.450;2023-01-28T06:23:16;13.65;;;12.45;;
21814;SDS011;11069;48.988;8.450;2023-01-28T06:25:41;13.95;;;12.65;;
21814;SDS011;11069;48.988;8.450;2023-01-28T06:28:07;13.65;;;12.45;;
21814;SDS011;11069;48.988;8.450;2023-01-28T06:30:32;12.75;;;11.65;;
21814;SDS011;11069;48.988;8.450;2023-01-28T06:32:58;12.93;;;11.82;;
21814;SDS011;11069;48.988;8.450;2023-01-28T06:35:23;12.27;;;11.18;;
21814;SDS011;11069;48.988;8.450;2023-01-28T06:37:49;11.07;;;10.18;;
21814;SDS011;11069;48.988;8.450;2023-01-28T06:40:16;12.10;;;11.00;;
21814;SDS011;11069;48.988;8.450;2023-01-28T06:42:42;10.07;;;9.15;;
21814;SDS011;11069;48.988;8.450;2023-01-28T06:45:08;10.80;;;9.85;;
21814;SDS011;11069;48.988;8.450;2023-01-28T06:47:34;10.73;;;9.82;;
21814;SDS011;11069;48.988;8.450;2023-01-28T06:49:59;10.98;;;10.02;;
21814;SDS011;11069;48.988;8.450;2023-01-28T06:52:25;10.60;;;9.70;;
21814;SDS011;11069;48.988;8.450;2023-01-28T06:54:50;10.80;;;9.90;;
21814;SDS011;11069;48.988;8.450;2023-01-28T06:57:16;10.98;;;10.00;;
21814;SDS011;11069;48.988;8.450;2023-01-28T06:59:41;10.70;;;9.70;;
21814;SDS011;11069;48.988;8.450;2023-01-28T07:02:08;11.20;;;10.20;;
21814;SDS011;11069;48.988;8.450;2023-01-28T07:04:35;10.80;;;9.80;;
21814;SDS011;11069;48.988;8.450;2023-01-28T07:07:01;10.75;;;9.75;;
21814;SDS011;11069;48.988;8.450;2023-01-28T07:09:27;10.90;;;9.93;;
21814;SDS011;11069;48.988;8.450;2023-01-28T07:11:52;11.10;;;10.10;;
21814;SDS011;11069;48.988;8.450;2023-01-28T07:14:18;9.68;;;8.88;;
21814;SDS011;11069;48.988;8.450;2023-01-28T07:16:44;10.15;;;9.25;;
21814;SDS011;11069;48.988;8.450;2023-01-28T07:19:09;10.80;;;9.82;;
21814;SDS011;11069;48.988;8.450;2023-01-28T07:21:35;10.95;;;10.00;;
21814;SDS011;11069;48.988;8.450;2023-01-28T07:24:00;10.57;;;9.68;;
21814;SDS011;11069;48.988;8.450;2023-01-28T07:26:29;11.10;;;10.10;;
21814;SDS011;11069;48.988;8.450;2023-01-28T07:28:55;11.30;;;10.30;;
21814;SDS011;11069;48.988;8.450;2023-01-28T07:31:20;11.68;;;10.68;;
21814;SDS011;11069;48.988;8.450;2023-01-28T07:33:46;11.40;;;10.40;;
21814;SDS011;11069;48.988;8.450;2023-01-28T07:36:11;12.70;;;11.50;;
21814;SDS011;11069;48.988;8.450;2023-01-28T07:38:37;11.93;;;10.82;;
21814;SDS011;11069;48.988;8.450;2023-01-28T07:41:03;11.63;;;10.52;;
21814;SDS011;11069;48.988;8.450;2023-01-28T07:43:28;10.95;;;9.85;;
21814;SDS011;11069;48.988;8.450;2023-01-28T07:45:54;11.32;;;10.35;;
21814;SDS011;11069;48.988;8.450;2023-01-28T07:48:19;11.50;;;10.50;;
21814;SDS011;11069;48.988;8.450;2023-01-28T07:50:45;11.40;;;10.40;;
21814;SDS011;11069;48.988;8.450;2023-01-28T07:53:13;11.13;;;10.13;;
21814;SDS011;11069;48.988;8.450;2023-01-28T07:55:39;12.10;;;11.00;;
21814;SDS011;11069;48.988;8.450;2023-01-28T07:58:05;11.48;;;10.38;;
21814;SDS011;11069;48.988;8.450;2023-01-28T08:00:33;10.50;;;9.52;;
21814;SDS011;11069;48.988;8.450;2023-01-28T08:03:02;10.85;;;9.85;;
21814;SDS011;11069;48.988;8.450;2023-01-28T08:05:40;10.52;;;9.63;;
21814;SDS011;11069;48.988;8.450;2023-01-28T08:08:09;10.27;;;9.38;;
21814;SDS011;11069;48.988;8.450;2023-01-28T08:10:35;10.05;;;9.15;;
21814;SDS011;11069;48.988;8.450;2023-01-28T08:13:01;11.07;;;10.07;;
21814;SDS011;11069;48.988;8.450;2023-01-28T08:15:27;12.10;;;10.90;;
21814;SDS011;11069;48.988;8.450;2023-01-28T08:17:54;10.68;;;9.68;;
21814;SDS011;11069;48.988;8.450;2023-01-28T08:20:21;11.60;;;10.50;;
21814;SDS011;11069;48.988;8.450;2023-01-28T08:22:47;12.23;;;11.10;;
21814;SDS011;11069;48.988;8.450;2023-01-28T08:25:12;11.63;;;10.50;;
21814;SDS011;11069;48.988;8.450;2023-01-28T08:27:38;12.70;;;11.50;;
21814;SDS011;11069;48.988;8.450;2023-01-28T08:30:04;11.93;;;10.82;;
21814;SDS011;11069;48.988;8.450;2023-01-28T08:32:30;11.52;;;10.40;;
21814;SDS011;11069;48.988;8.450;2023-01-28T08:34:56;13.10;;;11.80;;
21814;SDS011;11069;48.988;8.450;2023-01-28T08:37:22;13.02;;;11.80;;
21814;SDS011;11069;48.988;8.450;2023-01-28T08:39:47;12.27;;;11.07;;
21814;SDS011;11069;48.988;8.450;2023-01-28T08:42:14;12.18;;;11.07;;
21814;SDS011;11069;48.988;8.450;2023-01-28T08:44:39;12.77;;;11.57;;
21814;SDS011;11069;48.988;8.450;2023-01-28T08:47:05;12.20;;;11.00;;
21814;SDS011;11069;48.988;8.450;2023-01-28T08:49:30;12.32;;;11.23;;
21814;SDS011;11069;48.988;8.450;2023-01-28T08:51:56;12.70;;;11.40;;
21814;SDS011;11069;48.988;8.450;2023-01-28T08:54:21;12.70;;;11.50;;
21814;SDS011;11069;48.988;8.450;2023-01-28T08:56:47;13.15;;;11.73;;
21814;SDS011;11069;48.988;8.450;2023-01-28T08:59:13;14.48;;;13.07;;
21814;SDS011;11069;48.988;8.450;2023-01-28T09:01:39;12.15;;;11.05;;
21814;SDS011;11069;48.988;8.450;2023-01-28T09:04:05;11.95;;;10.77;;
21814;SDS011;11069;48.988;8.450;2023-01-28T09:06:30;12.68;;;11.43;;
21814;SDS011;11069;48.988;8.450;2023-01-28T09:08:57;13.02;;;11.73;;
21814;SDS011;11069;48.988;8.450;2023-01-28T09:11:23;12.20;;;11.10;;
21814;SDS011;11069;48.988;8.450;2023-01-28T09:13:49;12.27;;;11.05;;
21814;SDS011;11069;48.988;8.450;2023-01-28T09:16:15;12.20;;;10.90;;
21814;SDS011;11069;48.988;8.450;2023-01-28T09:18:41;12.90;;;11.60;;
21814;SDS011;11069;48.988;8.450;2023-01-28T09:21:06;14.57;;;13.20;;
21814;SDS011;11069;48.988;8.450;2023-01-28T09:23:33;12.23;;;10.95;;
21814;SDS011;11069;48.988;8.450;2023-01-28T09:26:02;12.80;;;11.60;;
21814;SDS011;11069;48.988;8.450;2023-01-28T09:28:29;12.13;;;10.93;;
21814;SDS011;11069;48.988;8.450;2023-01-28T09:31:05;12.80;;;11.60;;
21814;SDS011;11069;48.988;8.450;2023-01-28T09:33:32;12.85;;;11.55;;
21814;SDS011;11069;48.988;8.450;2023-01-28T09:35:59;12.82;;;11.63;;
21814;SDS011;11069;48.988;8.450;2023-01-28T09:38:26;13.95;;;12.52;;
21814;SDS011;11069;48.988;8.450;2023-01-28T09:40:51;12.10;;;10.90;;
21814;SDS011;11069;48.988;8.450;2023-01-28T09:46:02;13.32;;;11.48;;
21814;SDS011;11069;48.988;8.450;2023-01-28T09:48:37;12.90;;;11.70;;
21814;SDS011;11069;48.988;8.450;2023-01-28T09:51:07;12.45;;;11.25;;
21814;SDS011;11069;48.988;8.450;2023-01-28T09:53:39;12.50;;;11.30;;
21814;SDS011;11069;48.988;8.450;2023-01-28T09:56:12;13.30;;;11.98;;
21814;SDS011;11069;48.988;8.450;2023-01-28T09:58:44;13.70;;;12.30;;
21814;SDS011;11069;48.988;8.450;2023-01-28T10:04:10;12.65;;;10.68;;
21814;SDS011;11069;48.988;8.450;2023-01-28T10:17:31;13.75;;;12.45;;
21814;SDS011;11069;48.988;8.450;2023-01-28T10:20:05;12.50;;;11.30;;
21814;SDS011;11069;48.988;8.450;2023-01-28T10:22:42;11.73;;;10.63;;
21814;SDS011;11069;48.988;8.450;2023-01-28T10:25:16;11.75;;;10.65;;
21814;SDS011;11069;48.988;8.450;2023-01-28T10:27:44;12.53;;;11.23;;
21814;SDS011;11069;48.988;8.450;2023-01-28T10:32:42;12.15;;;11.05;;
21814;SDS011;11069;48.988;8.450;2023-01-28T10:35:15;13.20;;;11.80;;
21814;SDS011;11069;48.988;8.450;2023-01-28T10:37:41;11.23;;;10.13;;
21814;SDS011;11069;48.988;8.450;2023-01-28T10:40:11;12.40;;;11.10;;
21814;SDS011;11069;48.988;8.450;2023-01-28T10:42:40;12.80;;;11.50;;
21814;SDS011;11069;48.988;8.450;2023-01-28T10:45:17;12.90;;;11.70;;
21814;SDS011;11069;48.988;8.450;2023-01-28T10:47:53;13.07;;;11.77;;
21814;SDS011;11069;48.988;8.450;2023-01-28T10:50:25;12.20;;;11.07;;
21814;SDS011;11069;48.988;8.450;2023-01-28T10:52:56;12.27;;;11.10;;
21814;SDS011;11069;48.988;8.450;2023-01-28T10:55:24;12.23;;;11.07;;
21814;SDS011;11069;48.988;8.450;2023-01-28T10:57:53;11.60;;;10.32;;
21814;SDS011;11069;48.988;8.450;2023-01-28T11:02:46;11.27;;;10.27;;
21814;SDS011;11069;48.988;8.450;2023-01-28T11:07:46;11.02;;;10.02;;
21814;SDS011;11069;48.988;8.450;2023-01-28T11:12:53;10.85;;;9.90;;
21814;SDS011;11069;48.988;8.450;2023-01-28T11:15:23;11.93;;;10.82;;
21814;SDS011;11069;48.988;8.450;2023-01-28T11:18:03;10.85;;;9.77;;
21814;SDS011;11069;48.988;8.450;2023-01-28T11:20:37;11.18;;;10.07;;
21814;SDS011;11069;48.988;8.450;2023-01-28T11:23:05;11.18;;;9.98;;
21814;SDS011;11069;48.988;8.450;2023-01-28T11:25:34;11.55;;;10.55;;
21814;SDS011;11069;48.988;8.450;2023-01-28T11:28:02;11.68;;;10.57;;
21814;SDS011;11069;48.988;8.450;2023-01-28T11:30:32;10.75;;;9.75;;
21814;SDS011;11069;48.988;8.450;2023-01-28T11:35:31;10.43;;;9.43;;
21814;SDS011;11069;48.988;8.450;2023-01-28T11:37:58;11.20;;;10.05;;
21814;SDS011;11069;48.988;8.450;2023-01-28T11:40:24;9.82;;;8.95;;
21814;SDS011;11069;48.988;8.450;2023-01-28T11:42:50;9.85;;;8.95;;
21814;SDS011;11069;48.988;8.450;2023-01-28T11:48:06;9.75;;;8.93;;
21814;SDS011;11069;48.988;8.450;2023-01-28T11:55:44;10.23;;;9.02;;
21814;SDS011;11069;48.988;8.450;2023-01-28T12:01:11;9.93;;;8.93;;
21814;SDS011;11069;48.988;8.450;2023-01-28T12:06:36;10.10;;;9.10;;
21814;SDS011;11069;48.988;8.450;2023-01-28T12:12:37;10.18;;;9.18;;
21814;SDS011;11069;48.988;8.450;2023-01-28T12:21:22;9.68;;;8.77;;
21814;SDS011;11069;48.988;8.450;2023-01-28T12:39:52;9.05;;;8.25;;
21814;SDS011;11069;48.988;8.450;2023-01-28T12:42:43;9.20;;;8.30;;
21814;SDS011;11069;48.988;8.450;2023-01-28T12:51:14;7.90;;;7.20;;
21814;SDS011;11069;48.988;8.450;2023-01-28T12:54:25;8.32;;;7.50;;
21814;SDS011;11069;48.988;8.450;2023-01-28T12:56:59;9.15;;;7.68;;
21814;SDS011;11069;48.988;8.450;2023-01-28T12:59:28;7.78;;;6.97;;
21814;SDS011;11069;48.988;8.450;2023-01-28T13:02:16;7.88;;;7.07;;
21814;SDS011;11069;48.988;8.450;2023-01-28T13:10:39;7.68;;;6.95;;
21814;SDS011;11069;48.988;8.450;2023-01-28T13:13:09;7.88;;;7.07;;
21814;SDS011;11069;48.988;8.450;2023-01-28T13:15:41;7.70;;;7.00;;
21814;SDS011;11069;48.988;8.450;2023-01-28T13:18:51;7.72;;;6.93;;
21814;SDS011;11069;48.988;8.450;2023-01-28T13:21:16;8.68;;;7.15;;
21814;SDS011;11069;48.988;8.450;2023-01-28T13:26:41;9.93;;;7.28;;
21814;SDS011;11069;48.988;8.450;2023-01-28T13:32:00;8.10;;;6.85;;
21814;SDS011;11069;48.988;8.450;2023-01-28T13:36:57;7.25;;;6.55;;
21814;SDS011;11069;48.988;8.450;2023-01-28T13:39:28;7.80;;;7.00;;
21814;SDS011;11069;48.988;8.450;2023-01-28T13:42:06;8.63;;;7.13;;
21814;SDS011;11069;48.988;8.450;2023-01-28T13:44:35;8.20;;;6.55;;
21814;SDS011;11069;48.988;8.450;2023-01-28T13:52:12;7.43;;;6.40;;
21814;SDS011;11069;48.988;8.450;2023-01-28T13:54:44;6.70;;;6.00;;
21814;SDS011;11069;48.988;8.450;2023-01-28T14:00:32;7.15;;;6.45;;
21814;SDS011;11069;48.988;8.450;2023-01-28T14:13:50;6.80;;;6.10;;
21814;SDS011;11069;48.988;8.450;2023-01-28T14:16:43;6.47;;;5.88;;
21814;SDS011;11069;48.988;8.450;2023-01-28T14:19:18;6.32;;;5.72;;
21814;SDS011;11069;48.988;8.450;2023-01-28T14:21:52;6.47;;;5.88;;
21814;SDS011;11069;48.988;8.450;2023-01-28T14:24:21;6.53;;;5.93;;
21814;SDS011;11069;48.988;8.450;2023-01-28T14:32:45;6.72;;;6.03;;
21814;SDS011;11069;48.988;8.450;2023-01-28T14:35:32;6.47;;;5.88;;
21814;SDS011;11069;48.988;8.450;2023-01-28T14:38:05;7.22;;;6.47;;
21814;SDS011;11069;48.988;8.450;2023-01-28T14:40:32;6.15;;;5.55;;
21814;SDS011;11069;48.988;8.450;2023-01-28T14:43:02;5.95;;;5.45;;
21814;SDS011;11069;48.988;8.450;2023-01-28T14:58:34;5.07;;;4.57;;
21814;SDS011;11069;48.988;8.450;2023-01-28T15:01:03;5.55;;;5.05;;
21814;SDS011;11069;48.988;8.450;2023-01-28T15:03:29;5.35;;;4.85;;
21814;SDS011;11069;48.988;8.450;2023-01-28T15:06:10;5.40;;;4.90;;
21814;SDS011;11069;48.988;8.450;2023-01-28T15:08:38;5.60;;;5.05;;
21814;SDS011;11069;48.988;8.450;2023-01-28T15:11:05;5.85;;;5.35;;
21814;SDS011;11069;48.988;8.450;2023-01-28T15:13:44;6.33;;;5.47;;
21814;SDS011;11069;48.988;8.450;2023-01-28T15:16:19;5.53;;;4.60;;
21814;SDS011;11069;48.988;8.450;2023-01-28T15:18:47;5.88;;;5.38;;
21814;SDS011;11069;48.988;8.450;2023-01-28T15:21:17;6.10;;;5.50;;
21814;SDS011;11069;48.988;8.450;2023-01-28T15:23:48;7.50;;;5.10;;
21814;SDS011;11069;48.988;8.450;2023-01-28T15:26:18;6.10;;;5.53;;
21814;SDS011;11069;48.988;8.450;2023-01-28T15:28:49;5.88;;;5.28;;
21814;SDS011;11069;48.988;8.450;2023-01-28T15:31:23;5.95;;;5.40;;
21814;SDS011;11069;48.988;8.450;2023-01-28T15:33:56;6.32;;;5.70;;
21814;SDS011;11069;48.988;8.450;2023-01-28T15:36:25;6.70;;;6.00;;
21814;SDS011;11069;48.988;8.450;2023-01-28T15:38:51;6.80;;;6.10;;
21814;SDS011;11069;48.988;8.450;2023-01-28T15:41:17;6.68;;;5.90;;
21814;SDS011;11069;48.988;8.450;2023-01-28T15:43:45;8.13;;;7.05;;
21814;SDS011;11069;48.988;8.450;2023-01-28T15:46:13;7.95;;;6.90;;
21814;SDS011;11069;48.988;8.450;2023-01-28T15:48:40;8.45;;;7.22;;
21814;SDS011;11069;48.988;8.450;2023-01-28T15:51:17;8.60;;;7.65;;
21814;SDS011;11069;48.988;8.450;2023-01-28T15:53:48;10.32;;;9.15;;
21814;SDS011;11069;48.988;8.450;2023-01-28T15:56:16;11.23;;;8.75;;
21814;SDS011;11069;48.988;8.450;2023-01-28T15:58:49;15.88;;;11.95;;
21814;SDS011;11069;48.988;8.450;2023-01-28T16:01:15;11.60;;;10.40;;
21814;SDS011;11069;48.988;8.450;2023-01-28T16:03:44;14.27;;;9.07;;
21814;SDS011;11069;48.988;8.450;2023-01-28T16:06:18;10.60;;;8.30;;
21814;SDS011;11069;48.988;8.450;2023-01-28T16:11:25;8.32;;;7.35;;
21814;SDS011;11069;48.988;8.450;2023-01-28T16:13:57;12.30;;;7.75;;
21814;SDS011;11069;48.988;8.450;2023-01-28T16:16:27;12.15;;;8.70;;
21814;SDS011;11069;48.988;8.450;2023-01-28T16:19:02;9.35;;;7.47;;
21814;SDS011;11069;48.988;8.450;2023-01-28T16:21:31;9.32;;;8.32;;
21814;SDS011;11069;48.988;8.450;2023-01-28T16:26:34;7.30;;;6.32;;
21814;SDS011;11069;48.988;8.450;2023-01-28T16:29:09;8.15;;;6.45;;
21814;SDS011;11069;48.988;8.450;2023-01-28T16:31:40;6.40;;;5.72;;
21814;SDS011;11069;48.988;8.450;2023-01-28T16:34:08;6.85;;;6.15;;
21814;SDS011;11069;48.988;8.450;2023-01-28T16:36:34;6.45;;;5.80;;
21814;SDS011;11069;48.988;8.450;2023-01-28T16:39:00;6.15;;;5.55;;
21814;SDS011;11069;48.988;8.450;2023-01-28T16:41:26;7.68;;;5.93;;
21814;SDS011;11069;48.988;8.450;2023-01-28T16:43:56;6.75;;;6.07;;
21814;SDS011;11069;48.988;8.450;2023-01-28T16:46:25;6.00;;;5.50;;
21814;SDS011;11069;48.988;8.450;2023-01-28T16:48:53;5.63;;;5.07;;
21814;SDS011;11069;48.988;8.450;2023-01-28T16:51:19;6.32;;;5.32;;
21814;SDS011;11069;48.988;8.450;2023-01-28T16:53:45;6.40;;;5.80;;
21814;SDS011;11069;48.988;8.450;2023-01-28T16:56:16;5.63;;;5.05;;
21814;SDS011;11069;48.988;8.450;2023-01-28T16:58:44;6.07;;;5.00;;
21814;SDS011;11069;48.988;8.450;2023-01-28T17:01:10;7.07;;;5.30;;
21814;SDS011;11069;48.988;8.450;2023-01-28T17:03:36;7.07;;;5.75;;
21814;SDS011;11069;48.988;8.450;2023-01-28T17:06:02;8.25;;;5.90;;
21814;SDS011;11069;48.988;8.450;2023-01-28T17:08:28;6.75;;;5.70;;
21814;SDS011;11069;48.988;8.450;2023-01-28T17:10:54;7.10;;;6.40;;
21814;SDS011;11069;48.988;8.450;2023-01-28T17:13:20;6.78;;;5.95;;
21814;SDS011;11069;48.988;8.450;2023-01-28T17:15:46;7.97;;;6.15;;
21814;SDS011;11069;48.988;8.450;2023-01-28T17:18:12;6.82;;;6.03;;
21814;SDS011;11069;48.988;8.450;2023-01-28T17:20:38;7.88;;;6.95;;
21814;SDS011;11069;48.988;8.450;2023-01-28T17:23:07;10.00;;;6.90;;
21814;SDS011;11069;48.988;8.450;2023-01-28T17:25:36;8.13;;;7.32;;
21814;SDS011;11069;48.988;8.450;2023-01-28T17:28:03;7.80;;;6.88;;